createdAt,value
2023-01-30T00:00:44.045Z,3.13
2023-01-30T00:01:44.058Z,3.19
2023-01-30T00:02:43.962Z,3.21
2023-01-30T00:03:43.926Z,3.22
2023-01-30T00:04:43.916Z,3.18
2023-01-30T00:05:43.920Z,3.19
2023-01-30T00:06:43.828Z,3.21
2023-01-30T00:07:43.776Z,3.19
2023-01-30T00:08:43.739Z,3.21
2023-01-30T00:09:43.698Z,3.19
2023-01-30T00:10:43.672Z,3.21
2023-01-30T00:11:43.720Z,3.18
2023-01-30T00:12:43.587Z,3.16
2023-01-30T00:13:43.558Z,3.25
2023-01-30T00:14:43.509Z,3.22
2023-01-30T00:15:43.479Z,3.14
2023-01-30T00:16:43.448Z,3.28
2023-01-30T00:17:43.456Z,3.22
2023-01-30T00:18:43.350Z,3.16
2023-01-30T00:19:43.318Z,3.21
2023-01-30T00:20:43.273Z,3.32
2023-01-30T00:21:43.248Z,3.23
2023-01-30T00:22:52.473Z,3.25
2023-01-30T00:23:43.236Z,3.23
2023-01-30T00:24:43.204Z,3.18
2023-01-30T00:25:43.212Z,3.29
2023-01-30T00:26:43.127Z,3.21
2023-01-30T00:27:43.017Z,3.22
2023-01-30T00:28:43.040Z,3.22
2023-01-30T00:29:45.663Z,3.22
2023-01-30T00:30:42.942Z,3.25
2023-01-30T00:31:42.863Z,3.22
2023-01-30T00:32:42.822Z,3.19
2023-01-30T00:33:42.777Z,3.14
2023-01-30T00:34:42.750Z,3.26
2023-01-30T00:35:42.757Z,3.29
2023-01-30T00:36:42.672Z,3.31
2023-01-30T00:37:42.634Z,3.19
2023-01-30T00:38:42.591Z,3.21
2023-01-30T00:39:42.552Z,3.28
2023-01-30T00:40:42.510Z,3.29
2023-01-30T00:41:42.542Z,3.21
2023-01-30T00:42:42.444Z,3.28
2023-01-30T00:43:42.389Z,3.19
2023-01-30T00:44:42.380Z,3.19
2023-01-30T00:45:42.371Z,3.31
2023-01-30T00:46:42.291Z,3.22
2023-01-30T00:47:42.312Z,3.22
2023-01-30T00:48:42.203Z,3.23
2023-01-30T00:49:42.176Z,3.21
2023-01-30T00:50:42.139Z,3.14
2023-01-30T00:51:42.092Z,3.19
2023-01-30T00:52:42.059Z,3.13
2023-01-30T00:53:42.069Z,3.25
2023-01-30T00:54:42.016Z,3.14
2023-01-30T00:55:41.939Z,3.16
2023-01-30T00:56:41.906Z,3.19
2023-01-30T00:57:41.857Z,3.11
2023-01-30T00:58:41.835Z,3.16
2023-01-30T00:59:41.840Z,3.13
2023-01-30T01:00:41.750Z,3.18
2023-01-30T01:01:41.765Z,3.10
2023-01-30T01:02:41.709Z,3.14
2023-01-30T01:03:41.634Z,3.16
2023-01-30T01:04:41.599Z,3.19
2023-01-30T01:05:41.628Z,3.19
2023-01-30T01:06:41.520Z,3.13
2023-01-30T01:07:41.480Z,3.22
2023-01-30T01:08:41.453Z,3.08
2023-01-30T01:09:41.401Z,3.13
2023-01-30T01:10:41.360Z,3.14
2023-01-30T01:11:41.374Z,3.14
2023-01-30T01:12:41.303Z,3.14
2023-01-30T01:13:41.248Z,3.18
2023-01-30T01:14:41.206Z,3.16
2023-01-30T01:15:41.174Z,3.14
2023-01-30T01:16:41.175Z,3.16
2023-01-30T01:17:41.147Z,3.07
2023-01-30T01:18:41.065Z,3.13
2023-01-30T01:19:41.027Z,3.11
2023-01-30T01:20:40.988Z,3.13
2023-01-30T01:21:40.955Z,3.14
2023-01-30T01:22:40.898Z,3.13
2023-01-30T01:23:40.937Z,3.16
2023-01-30T01:24:40.832Z,3.19
2023-01-30T01:25:40.792Z,3.16
2023-01-30T01:26:40.773Z,3.16
2023-01-30T01:27:40.726Z,3.18
2023-01-30T01:28:40.683Z,3.19
2023-01-30T01:29:40.691Z,3.14
2023-01-30T01:30:40.600Z,3.23
2023-01-30T01:31:40.662Z,3.21
2023-01-30T01:32:40.625Z,3.22
2023-01-30T01:33:40.489Z,3.19
2023-01-30T01:34:40.438Z,3.19
2023-01-30T01:35:40.404Z,3.25
2023-01-30T01:36:55.839Z,3.25
2023-01-30T01:37:40.328Z,3.16
2023-01-30T01:38:40.350Z,3.16
2023-01-30T01:39:40.252Z,3.25
2023-01-30T01:40:40.240Z,3.23
2023-01-30T01:41:40.173Z,3.14
2023-01-30T01:42:40.138Z,3.19
2023-01-30T01:43:40.157Z,3.21
2023-01-30T01:44:40.069Z,3.23
2023-01-30T01:45:40.063Z,3.22
2023-01-30T01:46:39.979Z,3.29
2023-01-30T01:47:39.951Z,3.25
2023-01-30T01:48:39.981Z,3.19
2023-01-30T01:49:39.872Z,3.42
2023-01-30T01:50:39.831Z,3.28
2023-01-30T01:51:39.819Z,3.25
2023-01-30T01:52:39.764Z,3.31
2023-01-30T01:53:39.741Z,3.44
2023-01-30T01:54:39.756Z,3.47
2023-01-30T01:55:39.642Z,3.44
2023-01-30T01:56:39.601Z,3.40
2023-01-30T01:57:39.558Z,3.37
2023-01-30T01:58:39.528Z,3.45
2023-01-30T01:59:39.494Z,3.34
2023-01-30T02:00:39.521Z,3.37
2023-01-30T02:01:39.425Z,3.41
2023-01-30T02:02:39.388Z,3.28
2023-01-30T02:03:39.338Z,3.45
2023-01-30T02:04:39.297Z,3.48
2023-01-30T02:05:39.256Z,3.44
2023-01-30T02:06:39.280Z,3.42
2023-01-30T02:07:39.181Z,3.44
2023-01-30T02:08:39.145Z,3.42
2023-01-30T02:09:39.120Z,3.47
2023-01-30T02:10:39.066Z,3.42
2023-01-30T02:11:39.035Z,3.42
2023-01-30T02:12:39.048Z,3.34
2023-01-30T02:13:38.951Z,3.42
2023-01-30T02:14:38.914Z,3.44
2023-01-30T02:15:38.879Z,3.45
2023-01-30T02:16:38.833Z,3.47
2023-01-30T02:17:38.880Z,3.45
2023-01-30T02:18:38.763Z,3.44
2023-01-30T02:19:38.725Z,3.47
2023-01-30T02:20:38.691Z,3.47
2023-01-30T02:21:38.655Z,3.47
2023-01-30T02:22:38.605Z,3.34
2023-01-30T02:23:38.632Z,3.47
2023-01-30T02:24:38.535Z,3.45
2023-01-30T02:25:38.505Z,3.41
2023-01-30T02:26:38.523Z,3.42
2023-01-30T02:27:38.421Z,3.50
2023-01-30T02:28:38.402Z,3.50
2023-01-30T02:29:38.393Z,3.48
2023-01-30T02:30:38.457Z,3.48
2023-01-30T02:31:38.343Z,3.37
2023-01-30T02:32:38.257Z,3.41
2023-01-30T02:33:38.185Z,3.51
2023-01-30T02:34:38.144Z,3.44
2023-01-30T02:35:38.137Z,3.48
2023-01-30T02:36:38.143Z,3.47
2023-01-30T02:37:38.033Z,3.31
2023-01-30T02:38:37.995Z,3.45
2023-01-30T02:39:37.964Z,3.37
2023-01-30T02:40:37.913Z,3.53
2023-01-30T02:41:37.944Z,3.42
2023-01-30T02:42:37.844Z,3.44
2023-01-30T02:43:37.822Z,3.37
2023-01-30T02:44:37.774Z,3.45
2023-01-30T02:45:37.731Z,3.45
2023-01-30T02:46:37.686Z,3.45
2023-01-30T02:47:37.716Z,3.41
2023-01-30T02:48:37.627Z,3.40
2023-01-30T02:49:37.599Z,3.44
2023-01-30T02:50:37.537Z,3.40
2023-01-30T02:51:37.505Z,3.41
2023-01-30T02:52:37.466Z,3.45
2023-01-30T02:53:37.538Z,3.40
2023-01-30T02:54:37.398Z,3.47
2023-01-30T02:55:37.345Z,3.48
2023-01-30T02:56:37.309Z,3.51
2023-01-30T02:57:37.276Z,3.53
2023-01-30T02:58:37.235Z,3.51
2023-01-30T02:59:37.249Z,3.55
2023-01-30T03:00:37.172Z,3.51
2023-01-30T03:01:37.208Z,3.58
2023-01-30T03:02:37.160Z,3.62
2023-01-30T03:03:37.061Z,3.58
2023-01-30T03:04:37.065Z,3.58
2023-01-30T03:05:36.975Z,3.59
2023-01-30T03:06:36.931Z,3.66
2023-01-30T03:07:36.896Z,3.62
2023-01-30T03:08:36.864Z,3.66
2023-01-30T03:09:36.822Z,3.63
2023-01-30T03:10:36.824Z,3.73
2023-01-30T03:11:36.735Z,3.70
2023-01-30T03:12:36.716Z,3.65
2023-01-30T03:13:36.659Z,3.76
2023-01-30T03:14:36.625Z,3.78
2023-01-30T03:15:36.663Z,3.70
2023-01-30T03:16:36.541Z,3.76
2023-01-30T03:17:36.517Z,3.69
2023-01-30T03:18:36.472Z,3.74
2023-01-30T03:19:36.437Z,3.77
2023-01-30T03:20:36.401Z,3.73
2023-01-30T03:21:36.412Z,3.74
2023-01-30T03:22:36.334Z,3.84
2023-01-30T03:23:36.282Z,3.83
2023-01-30T03:24:36.252Z,3.73
2023-01-30T03:25:36.221Z,3.84
2023-01-30T03:26:36.238Z,3.81
2023-01-30T03:27:36.183Z,3.81
2023-01-30T03:28:36.084Z,3.84
2023-01-30T03:29:36.048Z,3.78
2023-01-30T03:30:36.025Z,3.76
2023-01-30T03:31:36.078Z,3.91
2023-01-30T03:32:35.951Z,3.81
2023-01-30T03:33:35.951Z,3.86
2023-01-30T03:34:35.855Z,3.80
2023-01-30T03:35:35.819Z,3.86
2023-01-30T03:36:35.779Z,3.80
2023-01-30T03:37:35.745Z,3.86
2023-01-30T03:38:35.719Z,3.84
2023-01-30T03:39:35.739Z,3.88
2023-01-30T03:40:35.638Z,3.86
2023-01-30T03:41:35.591Z,3.94
2023-01-30T03:42:35.558Z,3.95
2023-01-30T03:43:35.532Z,3.95
2023-01-30T03:44:35.480Z,3.95
2023-01-30T03:45:35.571Z,3.95
2023-01-30T03:46:35.402Z,3.92
2023-01-30T03:47:35.363Z,3.87
2023-01-30T03:48:35.329Z,3.91
2023-01-30T03:49:35.292Z,3.95
2023-01-30T03:50:35.248Z,3.84
2023-01-30T03:51:35.697Z,3.81
2023-01-30T03:52:35.182Z,3.87
2023-01-30T03:53:35.166Z,3.80
2023-01-30T03:54:35.099Z,3.83
2023-01-30T03:55:35.080Z,3.78
2023-01-30T03:56:35.015Z,3.78
2023-01-30T03:57:35.044Z,3.86
2023-01-30T03:58:34.948Z,3.80
2023-01-30T03:59:34.915Z,3.81
2023-01-30T04:00:34.865Z,3.88
2023-01-30T04:01:34.936Z,3.99
2023-01-30T04:02:34.858Z,3.92
2023-01-30T04:03:34.751Z,3.86
2023-01-30T04:04:34.712Z,3.88
2023-01-30T04:05:34.678Z,3.92
2023-01-30T04:06:36.523Z,3.94
2023-01-30T04:07:34.603Z,4.01
2023-01-30T04:08:34.572Z,4.02
2023-01-30T04:09:34.526Z,3.99
2023-01-30T04:10:34.484Z,3.95
2023-01-30T04:11:34.448Z,3.98
2023-01-30T04:12:34.475Z,3.94
2023-01-30T04:13:34.376Z,4.05
2023-01-30T04:14:34.333Z,4.01
2023-01-30T04:15:34.311Z,4.02
2023-01-30T04:16:34.299Z,4.10
2023-01-30T04:17:34.233Z,4.08
2023-01-30T04:18:34.327Z,4.13
2023-01-30T04:19:34.150Z,4.19
2023-01-30T04:20:34.114Z,4.16
2023-01-30T04:21:34.080Z,4.12
2023-01-30T04:22:34.045Z,4.20
2023-01-30T04:23:34.001Z,4.20
2023-01-30T04:24:34.036Z,4.16
2023-01-30T04:25:33.946Z,4.14
2023-01-30T04:26:33.947Z,4.17
2023-01-30T04:27:33.851Z,4.23
2023-01-30T04:28:33.803Z,4.30
2023-01-30T04:29:33.765Z,4.16
2023-01-30T04:30:33.841Z,4.32
2023-01-30T04:31:33.794Z,4.35
2023-01-30T04:32:33.656Z,4.16
2023-01-30T04:33:33.626Z,4.20
2023-01-30T04:34:33.581Z,4.32
2023-01-30T04:35:33.543Z,4.38
2023-01-30T04:36:33.587Z,4.24
2023-01-30T04:37:33.463Z,4.31
2023-01-30T04:38:33.436Z,4.32
2023-01-30T04:39:33.389Z,4.26
2023-01-30T04:40:33.349Z,4.37
2023-01-30T04:41:33.313Z,4.38
2023-01-30T04:42:33.372Z,4.38
2023-01-30T04:43:33.231Z,4.34
2023-01-30T04:44:33.200Z,4.31
2023-01-30T04:45:33.179Z,4.28
2023-01-30T04:46:33.136Z,4.26
2023-01-30T04:47:33.112Z,4.34
2023-01-30T04:48:33.102Z,4.35
2023-01-30T04:49:33.035Z,4.34
2023-01-30T04:50:33.087Z,4.31
2023-01-30T04:51:32.935Z,4.37
2023-01-30T04:52:32.984Z,4.41
2023-01-30T04:53:32.871Z,4.23
2023-01-30T04:54:32.888Z,4.24
2023-01-30T04:55:32.776Z,4.32
2023-01-30T04:56:32.751Z,4.31
2023-01-30T04:57:32.703Z,4.28
2023-01-30T04:58:32.667Z,4.20
2023-01-30T04:59:32.684Z,4.19
2023-01-30T05:00:32.638Z,4.20
2023-01-30T05:01:32.565Z,4.14
2023-01-30T05:02:32.561Z,4.13
2023-01-30T05:03:32.481Z,4.13
2023-01-30T05:04:34.502Z,4.06
2023-01-30T05:05:32.409Z,4.01
2023-01-30T05:06:32.375Z,4.04
2023-01-30T05:07:32.343Z,4.01
2023-01-30T05:08:32.292Z,4.02
2023-01-30T05:09:33.004Z,3.83
2023-01-30T05:10:32.210Z,3.91
2023-01-30T05:11:32.190Z,3.84
2023-01-30T05:12:32.141Z,3.88
2023-01-30T05:13:32.105Z,3.86
2023-01-30T05:14:32.155Z,3.83
2023-01-30T05:15:32.026Z,3.87
2023-01-30T05:16:31.996Z,3.86
2023-01-30T05:17:32.001Z,3.81
2023-01-30T05:18:31.925Z,3.83
2023-01-30T05:19:31.873Z,3.74
2023-01-30T05:20:31.906Z,3.80
2023-01-30T05:21:31.806Z,3.78
2023-01-30T05:22:31.786Z,3.69
2023-01-30T05:23:31.735Z,3.73
2023-01-30T05:24:31.684Z,3.65
2023-01-30T05:25:31.652Z,3.74
2023-01-30T05:26:31.697Z,3.65
2023-01-30T05:27:31.574Z,3.63
2023-01-30T05:28:31.536Z,3.63
2023-01-30T05:29:31.508Z,3.59
2023-01-30T05:30:31.512Z,3.62
2023-01-30T05:31:31.586Z,3.63
2023-01-30T05:32:31.439Z,3.73
2023-01-30T05:33:31.341Z,3.70
2023-01-30T05:34:31.566Z,3.63
2023-01-30T05:35:31.273Z,3.63
2023-01-30T05:36:31.228Z,3.62
2023-01-30T05:37:31.200Z,3.63
2023-01-30T05:38:31.208Z,3.65
2023-01-30T05:39:31.123Z,3.78
2023-01-30T05:40:31.083Z,3.74
2023-01-30T05:41:31.037Z,3.78
2023-01-30T05:42:31.000Z,3.76
2023-01-30T05:43:30.970Z,3.74
2023-01-30T05:44:30.998Z,3.80
2023-01-30T05:45:30.887Z,3.78
2023-01-30T05:46:31.651Z,3.83
2023-01-30T05:47:30.839Z,3.86
2023-01-30T05:48:30.780Z,3.83
2023-01-30T05:49:30.772Z,3.83
2023-01-30T05:50:30.804Z,3.81
2023-01-30T05:51:30.657Z,3.77
2023-01-30T05:52:30.619Z,3.83
2023-01-30T05:53:30.621Z,3.84
2023-01-30T05:54:30.602Z,3.96
2023-01-30T05:55:30.564Z,3.86
2023-01-30T05:56:30.476Z,3.92
2023-01-30T05:57:30.427Z,3.94
2023-01-30T05:58:30.395Z,3.95
2023-01-30T05:59:30.413Z,4.01
2023-01-30T06:00:30.549Z,3.92
2023-01-30T06:01:30.281Z,3.92
2023-01-30T06:02:30.252Z,3.94
2023-01-30T06:03:30.275Z,3.98
2023-01-30T06:04:30.159Z,4.01
2023-01-30T06:05:30.192Z,3.91
2023-01-30T06:06:30.086Z,3.96
2023-01-30T06:07:30.066Z,3.99
2023-01-30T06:08:30.009Z,4.04
2023-01-30T06:09:29.982Z,4.05
2023-01-30T06:10:29.996Z,4.06
2023-01-30T06:11:29.908Z,4.13
2023-01-30T06:12:29.872Z,4.08
2023-01-30T06:13:29.843Z,4.14
2023-01-30T06:14:29.786Z,4.14
2023-01-30T06:15:29.749Z,4.13
2023-01-30T06:16:29.883Z,4.06
2023-01-30T06:17:30.044Z,4.20
2023-01-30T06:18:29.647Z,4.16
2023-01-30T06:19:29.599Z,4.19
2023-01-30T06:20:29.562Z,4.19
2023-01-30T06:21:29.602Z,4.16
2023-01-30T06:22:29.491Z,4.28
2023-01-30T06:23:29.473Z,4.35
2023-01-30T06:24:29.404Z,4.23
2023-01-30T06:25:29.371Z,4.44
2023-01-30T06:26:29.429Z,4.38
2023-01-30T06:27:29.299Z,4.32
2023-01-30T06:28:29.256Z,4.40
2023-01-30T06:29:29.214Z,4.38
2023-01-30T06:30:29.203Z,4.45
2023-01-30T06:31:29.159Z,4.49
2023-01-30T06:32:29.157Z,4.45
2023-01-30T06:33:29.070Z,4.49
2023-01-30T06:34:29.033Z,4.42
2023-01-30T06:35:28.998Z,4.40
2023-01-30T06:36:28.959Z,4.44
2023-01-30T06:37:28.921Z,4.45
2023-01-30T06:38:28.940Z,4.53
2023-01-30T06:39:28.847Z,4.53
2023-01-30T06:40:28.811Z,4.60
2023-01-30T06:41:28.769Z,4.58
2023-01-30T06:42:28.739Z,4.62
2023-01-30T06:43:28.696Z,4.71
2023-01-30T06:44:28.724Z,4.73
2023-01-30T06:45:28.618Z,4.77
2023-01-30T06:46:28.645Z,4.77
2023-01-30T06:47:28.539Z,4.71
2023-01-30T06:48:28.508Z,4.74
2023-01-30T06:49:28.458Z,4.77
2023-01-30T06:50:28.489Z,4.84
2023-01-30T06:51:28.393Z,4.78
2023-01-30T06:52:28.347Z,4.87
2023-01-30T06:53:28.378Z,4.90
2023-01-30T06:54:28.274Z,4.99
2023-01-30T06:55:28.245Z,4.93
2023-01-30T06:56:28.199Z,5.05
2023-01-30T06:57:28.162Z,5.00
2023-01-30T06:58:28.137Z,5.05
2023-01-30T06:59:28.143Z,5.10
2023-01-30T07:00:28.060Z,5.20
2023-01-30T07:01:29.091Z,5.17
2023-01-30T07:02:27.972Z,5.18
2023-01-30T07:03:27.947Z,5.23
2023-01-30T07:04:27.949Z,5.28
2023-01-30T07:05:27.921Z,5.35
2023-01-30T07:06:27.831Z,5.36
2023-01-30T07:07:27.788Z,5.39
2023-01-30T07:08:27.757Z,5.43
2023-01-30T07:09:27.717Z,5.46
2023-01-30T07:10:27.670Z,5.39
2023-01-30T07:11:27.708Z,5.50
2023-01-30T07:12:27.595Z,5.51
2023-01-30T07:13:27.569Z,5.50
2023-01-30T07:14:27.539Z,5.65
2023-01-30T07:15:27.488Z,5.68
2023-01-30T07:16:27.477Z,5.57
2023-01-30T07:17:27.474Z,5.65
2023-01-30T07:18:27.381Z,5.68
2023-01-30T07:19:27.340Z,5.71
2023-01-30T07:20:27.301Z,5.69
2023-01-30T07:21:27.281Z,5.72
2023-01-30T07:22:27.238Z,5.65
2023-01-30T07:23:27.245Z,5.75
2023-01-30T07:24:27.156Z,5.69
2023-01-30T07:25:27.125Z,5.75
2023-01-30T07:26:27.675Z,5.69
2023-01-30T07:27:27.045Z,5.80
2023-01-30T07:28:27.000Z,5.82
2023-01-30T07:29:27.037Z,5.84
2023-01-30T07:30:27.001Z,5.91
2023-01-30T07:31:26.916Z,5.89
2023-01-30T07:32:26.859Z,5.94
2023-01-30T07:33:26.829Z,5.90
2023-01-30T07:34:26.792Z,5.80
2023-01-30T07:35:26.852Z,5.93
2023-01-30T07:36:26.726Z,5.82
2023-01-30T07:37:26.812Z,5.94
2023-01-30T07:38:26.660Z,5.93
2023-01-30T07:39:26.607Z,5.97
2023-01-30T07:40:26.571Z,5.99
2023-01-30T07:41:26.587Z,5.94
2023-01-30T07:42:26.486Z,5.99
2023-01-30T07:43:26.507Z,5.99
2023-01-30T07:44:26.423Z,5.89
2023-01-30T07:45:26.394Z,6.04
2023-01-30T07:46:26.343Z,6.05
2023-01-30T07:47:26.374Z,5.98
2023-01-30T07:48:26.271Z,6.02
2023-01-30T07:49:26.233Z,6.09
2023-01-30T07:50:26.200Z,6.02
2023-01-30T07:51:26.155Z,6.04
2023-01-30T07:52:26.173Z,6.08
2023-01-30T07:53:26.155Z,6.09
2023-01-30T07:54:26.056Z,6.11
2023-01-30T07:55:26.029Z,6.04
2023-01-30T07:56:25.984Z,6.09
2023-01-30T07:57:25.949Z,6.01
2023-01-30T07:58:25.989Z,6.14
2023-01-30T07:59:25.877Z,6.09
2023-01-30T08:00:25.825Z,6.04
2023-01-30T08:01:25.832Z,6.05
2023-01-30T08:02:25.751Z,6.08
2023-01-30T08:03:25.732Z,6.04
2023-01-30T08:04:25.762Z,6.12
2023-01-30T08:05:25.651Z,6.05
2023-01-30T08:06:25.609Z,6.01
2023-01-30T08:07:25.579Z,5.97
2023-01-30T08:08:25.537Z,5.97
2023-01-30T08:09:25.561Z,5.90
2023-01-30T08:10:25.474Z,5.98
2023-01-30T08:11:25.432Z,6.04
2023-01-30T08:12:25.382Z,6.01
2023-01-30T08:13:25.357Z,5.90
2023-01-30T08:14:25.327Z,5.93
2023-01-30T08:15:25.379Z,5.93
2023-01-30T08:16:25.258Z,6.07
2023-01-30T08:17:25.303Z,6.02
2023-01-30T08:18:25.167Z,6.05
2023-01-30T08:19:25.132Z,6.01
2023-01-30T08:20:25.104Z,5.99
2023-01-30T08:21:25.111Z,6.02
2023-01-30T08:22:25.019Z,5.98
2023-01-30T08:23:24.990Z,6.08
2023-01-30T08:24:24.951Z,6.02
2023-01-30T08:25:24.918Z,6.05
2023-01-30T08:26:24.928Z,5.87
2023-01-30T08:27:24.897Z,6.08
2023-01-30T08:28:24.806Z,6.04
2023-01-30T08:29:24.763Z,5.99
2023-01-30T08:30:24.762Z,6.02
2023-01-30T08:31:24.722Z,6.02
2023-01-30T08:32:24.709Z,6.08
2023-01-30T08:33:24.622Z,6.04
2023-01-30T08:34:24.593Z,6.17
2023-01-30T08:35:24.551Z,6.16
2023-01-30T08:36:24.511Z,6.20
2023-01-30T08:37:24.474Z,6.11
2023-01-30T08:38:24.491Z,6.27
2023-01-30T08:39:24.467Z,6.19
2023-01-30T08:40:24.373Z,6.11
2023-01-30T08:41:25.039Z,6.24
2023-01-30T08:42:24.295Z,6.24
2023-01-30T08:43:24.272Z,6.22
2023-01-30T08:44:24.280Z,6.26
2023-01-30T08:45:24.185Z,6.20
2023-01-30T08:46:24.171Z,6.24
2023-01-30T08:47:24.109Z,6.28
2023-01-30T08:48:24.075Z,6.28
2023-01-30T08:49:24.037Z,6.41
2023-01-30T08:50:24.120Z,6.44
2023-01-30T08:51:23.967Z,6.44
2023-01-30T08:52:23.936Z,6.38
2023-01-30T08:53:23.903Z,6.45
2023-01-30T08:54:23.855Z,6.44
2023-01-30T08:55:23.823Z,6.42
2023-01-30T08:56:23.851Z,6.36
2023-01-30T08:57:23.749Z,6.39
2023-01-30T08:58:23.712Z,6.36
2023-01-30T08:59:23.681Z,6.35
2023-01-30T09:00:23.646Z,6.44
2023-01-30T09:01:23.718Z,6.59
2023-01-30T09:02:23.593Z,6.56
2023-01-30T09:03:23.556Z,6.62
2023-01-30T09:04:23.506Z,6.60
2023-01-30T09:05:23.464Z,6.66
2023-01-30T09:06:26.074Z,6.63
2023-01-30T09:07:23.385Z,6.81
2023-01-30T09:08:23.360Z,6.96
2023-01-30T09:09:23.322Z,6.95
2023-01-30T09:10:23.285Z,7.06
2023-01-30T09:11:23.249Z,7.05
2023-01-30T09:12:23.295Z,7.15
2023-01-30T09:13:23.183Z,7.13
2023-01-30T09:14:23.140Z,7.10
2023-01-30T09:15:23.106Z,7.07
2023-01-30T09:16:23.151Z,7.18
2023-01-30T09:17:23.030Z,7.32
2023-01-30T09:18:23.051Z,7.25
2023-01-30T09:19:22.983Z,7.35
2023-01-30T09:20:22.932Z,7.33
2023-01-30T09:21:22.905Z,7.33
2023-01-30T09:22:22.910Z,7.33
2023-01-30T09:23:22.835Z,7.32
2023-01-30T09:24:22.854Z,7.38
2023-01-30T09:25:22.774Z,7.36
2023-01-30T09:26:22.757Z,7.33
2023-01-30T09:27:22.684Z,7.32
2023-01-30T09:28:22.680Z,7.32
2023-01-30T09:29:22.608Z,7.47
2023-01-30T09:30:22.708Z,7.43
2023-01-30T09:31:22.651Z,7.43
2023-01-30T09:32:22.519Z,7.48
2023-01-30T09:33:22.467Z,7.50
2023-01-30T09:34:22.493Z,7.54
2023-01-30T09:35:22.406Z,7.57
2023-01-30T09:36:22.357Z,7.58
2023-01-30T09:37:22.327Z,7.57
2023-01-30T09:38:22.305Z,7.60
2023-01-30T09:39:22.262Z,7.57
2023-01-30T09:40:22.278Z,7.50
2023-01-30T09:41:22.193Z,7.42
2023-01-30T09:42:22.144Z,7.36
2023-01-30T09:43:22.121Z,7.32
2023-01-30T09:44:22.081Z,7.47
2023-01-30T09:45:22.052Z,7.47
2023-01-30T09:46:22.110Z,7.63
2023-01-30T09:47:21.975Z,7.57
2023-01-30T09:48:21.948Z,7.53
2023-01-30T09:49:21.910Z,7.58
2023-01-30T09:50:21.913Z,7.61
2023-01-30T09:51:21.837Z,7.53
2023-01-30T09:52:21.854Z,7.50
2023-01-30T09:53:21.758Z,7.48
2023-01-30T09:54:21.730Z,7.33
2023-01-30T09:55:21.717Z,7.23
2023-01-30T09:56:21.656Z,7.25
2023-01-30T09:57:22.480Z,7.24
2023-01-30T09:58:21.725Z,7.10
2023-01-30T09:59:21.606Z,7.14
2023-01-30T10:00:21.521Z,7.05
2023-01-30T10:01:21.659Z,6.99
2023-01-30T10:02:25.553Z,6.93
2023-01-30T10:03:21.478Z,6.88
2023-01-30T10:04:21.548Z,6.85
2023-01-30T10:05:21.355Z,6.72
2023-01-30T10:06:22.061Z,6.78
2023-01-30T10:07:21.327Z,6.75
2023-01-30T10:08:21.236Z,6.79
2023-01-30T10:09:21.203Z,6.84
2023-01-30T10:10:21.226Z,6.85
2023-01-30T10:11:22.067Z,6.81
2023-01-30T10:12:21.115Z,6.77
2023-01-30T10:13:21.088Z,6.79
2023-01-30T10:14:21.036Z,6.72
2023-01-30T10:15:21.000Z,6.72
2023-01-30T10:16:21.037Z,6.78
2023-01-30T10:17:20.917Z,6.75
2023-01-30T10:18:20.897Z,6.87
2023-01-30T10:19:34.704Z,6.85
2023-01-30T10:20:21.286Z,6.89
2023-01-30T10:21:20.846Z,6.89
2023-01-30T10:22:20.818Z,6.84
2023-01-30T10:23:20.705Z,6.82
2023-01-30T10:24:20.669Z,6.77
2023-01-30T10:25:20.642Z,6.79
2023-01-30T10:26:20.693Z,6.82
2023-01-30T10:27:20.591Z,6.93
2023-01-30T10:28:20.602Z,6.92
2023-01-30T10:29:20.542Z,7.03
2023-01-30T10:30:20.812Z,7.05
2023-01-30T10:31:20.501Z,7.18
2023-01-30T10:32:20.377Z,7.21
2023-01-30T10:33:20.371Z,7.32
2023-01-30T10:34:20.386Z,7.43
2023-01-30T10:35:20.297Z,7.69
2023-01-30T10:36:20.264Z,7.80
2023-01-30T10:37:20.211Z,7.94
2023-01-30T10:38:20.165Z,7.95
2023-01-30T10:39:20.142Z,8.10
2023-01-30T10:40:20.412Z,8.15
2023-01-30T10:41:20.096Z,8.19
2023-01-30T10:42:20.098Z,8.12
2023-01-30T10:43:19.996Z,8.03
2023-01-30T10:44:19.946Z,8.03
2023-01-30T10:45:19.925Z,8.03
2023-01-30T10:46:19.908Z,8.01
2023-01-30T10:47:22.130Z,7.94
2023-01-30T10:48:19.858Z,7.97
2023-01-30T10:49:19.770Z,7.95
2023-01-30T10:50:20.205Z,7.85
2023-01-30T10:51:19.748Z,7.85
2023-01-30T10:52:19.728Z,7.88
2023-01-30T10:53:19.632Z,7.94
2023-01-30T10:54:20.050Z,7.85
2023-01-30T10:55:31.506Z,7.75
2023-01-30T10:56:19.587Z,7.75
2023-01-30T10:57:19.563Z,7.76
2023-01-30T10:58:19.482Z,7.82
2023-01-30T10:59:19.424Z,7.83
2023-01-30T11:00:19.804Z,7.95
2023-01-30T11:01:19.361Z,8.06
2023-01-30T11:02:19.327Z,8.08
2023-01-30T11:03:19.358Z,8.06
2023-01-30T11:04:19.312Z,8.05
2023-01-30T11:05:19.589Z,8.03
2023-01-30T11:06:19.186Z,8.00
2023-01-30T11:07:19.141Z,8.08
2023-01-30T11:08:19.104Z,8.03
2023-01-30T11:09:19.158Z,8.08
2023-01-30T11:10:19.135Z,7.97
2023-01-30T11:11:19.013Z,7.94
2023-01-30T11:12:18.975Z,7.82
2023-01-30T11:13:19.001Z,7.93
2023-01-30T11:14:18.965Z,7.98
2023-01-30T11:15:19.245Z,8.09
2023-01-30T11:16:18.826Z,8.09
2023-01-30T11:17:18.791Z,8.12
2023-01-30T11:19:17.838Z,8.18
2023-01-30T11:19:21.214Z,8.12
2023-01-30T11:20:19.020Z,8.19
2023-01-30T11:21:18.665Z,8.13
2023-01-30T11:22:18.659Z,8.08
2023-01-30T11:23:18.587Z,8.08
2023-01-30T11:24:18.607Z,8.09
2023-01-30T11:25:18.805Z,8.13
2023-01-30T11:26:18.553Z,8.19
2023-01-30T11:27:18.587Z,8.16
2023-01-30T11:28:18.417Z,8.09
2023-01-30T11:29:18.395Z,8.09
2023-01-30T11:30:18.737Z,8.20
2023-01-30T11:31:21.347Z,8.18
2023-01-30T11:32:18.316Z,8.27
2023-01-30T11:33:18.259Z,8.41
2023-01-30T11:34:18.208Z,8.41
2023-01-30T11:35:18.216Z,8.41
2023-01-30T11:36:18.235Z,8.53
2023-01-30T11:37:19.088Z,8.52
2023-01-30T11:38:22.091Z,8.45
2023-01-30T11:39:18.069Z,8.51
2023-01-30T11:40:18.632Z,8.49
2023-01-30T11:41:19.572Z,8.52
2023-01-30T11:42:18.041Z,8.49
2023-01-30T11:43:17.941Z,8.56
2023-01-30T11:44:17.857Z,8.69
2023-01-30T11:45:18.585Z,8.63
2023-01-30T11:46:17.912Z,8.60
2023-01-30T11:47:17.793Z,8.49
2023-01-30T11:48:31.636Z,8.51
2023-01-30T11:49:47.438Z,8.60
2023-01-30T11:50:20.894Z,8.63
2023-01-30T11:51:17.664Z,8.61
2023-01-30T11:52:17.600Z,8.69
2023-01-30T11:53:17.580Z,8.58
2023-01-30T11:54:17.505Z,8.61
2023-01-30T11:55:17.546Z,8.60
2023-01-30T11:56:17.451Z,8.56
2023-01-30T11:57:17.484Z,8.60
2023-01-30T11:58:17.366Z,8.66
2023-01-30T11:59:17.326Z,8.76
2023-01-30T12:00:17.679Z,8.81
2023-01-30T12:01:17.282Z,8.78
2023-01-30T12:02:17.253Z,8.74
2023-01-30T12:03:17.308Z,8.70
2023-01-30T12:04:17.189Z,8.69
2023-01-30T12:05:17.118Z,8.69
2023-01-30T12:06:17.077Z,8.66
2023-01-30T12:07:17.079Z,8.58
2023-01-30T12:08:22.358Z,8.49
2023-01-30T12:09:17.102Z,8.46
2023-01-30T12:10:17.312Z,8.34
2023-01-30T12:11:16.967Z,8.48
2023-01-30T12:12:16.880Z,8.42
2023-01-30T12:13:16.847Z,8.42
2023-01-30T12:14:16.818Z,8.38
2023-01-30T12:15:16.824Z,8.41
2023-01-30T12:16:16.797Z,8.46
2023-01-30T12:17:16.707Z,8.63
2023-01-30T12:18:16.676Z,8.81
2023-01-30T12:19:16.637Z,8.97
2023-01-30T12:20:16.953Z,9.11
2023-01-30T12:21:16.633Z,9.11
2023-01-30T12:22:16.530Z,9.02
2023-01-30T12:23:16.498Z,8.99
2023-01-30T12:24:17.960Z,8.94
2023-01-30T12:25:16.431Z,8.95
2023-01-30T12:26:16.515Z,8.94
2023-01-30T12:27:16.371Z,9.00
2023-01-30T12:28:16.320Z,9.11
2023-01-30T12:29:16.285Z,9.23
2023-01-30T12:30:16.774Z,9.18
2023-01-30T12:31:16.218Z,9.23
2023-01-30T12:32:16.248Z,9.21
2023-01-30T12:34:16.142Z,9.16
2023-01-30T12:35:16.460Z,9.21
2023-01-30T12:36:16.042Z,9.21
2023-01-30T12:37:16.012Z,9.14
2023-01-30T12:38:16.032Z,9.22
2023-01-30T12:39:15.962Z,9.18
2023-01-30T12:40:15.924Z,9.16
2023-01-30T12:41:15.884Z,9.25
2023-01-30T12:42:15.847Z,9.23
2023-01-30T12:43:15.798Z,9.26
2023-01-30T12:44:15.843Z,9.25
2023-01-30T12:45:16.277Z,9.14
2023-01-30T12:46:15.826Z,9.21
2023-01-30T12:47:15.664Z,9.18
2023-01-30T12:48:15.638Z,9.03
2023-01-30T12:49:15.646Z,9.02
2023-01-30T12:50:15.631Z,8.84
2023-01-30T12:51:15.556Z,8.84
2023-01-30T12:52:15.492Z,8.88
2023-01-30T12:53:15.461Z,8.82
2023-01-30T12:54:15.433Z,8.97
2023-01-30T12:56:15.502Z,8.95
2023-01-30T12:57:15.334Z,8.88
2023-01-30T12:58:15.290Z,8.74
2023-01-30T12:59:15.260Z,8.66
2023-01-30T13:00:15.232Z,8.63
2023-01-30T13:01:15.259Z,8.51
2023-01-30T13:02:15.235Z,8.53
2023-01-30T13:03:15.117Z,8.49
2023-01-30T13:04:15.092Z,8.51
2023-01-30T13:05:15.059Z,8.45
2023-01-30T13:06:15.061Z,8.48
2023-01-30T13:07:15.066Z,8.30
2023-01-30T13:08:14.952Z,8.33
2023-01-30T13:09:14.923Z,8.27
2023-01-30T13:10:16.467Z,8.31
2023-01-30T13:11:14.839Z,8.33
2023-01-30T13:12:14.810Z,8.36
2023-01-30T13:13:14.833Z,8.27
2023-01-30T13:14:14.750Z,8.34
2023-01-30T13:15:14.724Z,8.36
2023-01-30T13:16:14.852Z,8.37
2023-01-30T13:17:14.650Z,8.37
2023-01-30T13:18:14.662Z,8.26
2023-01-30T13:19:14.612Z,8.34
2023-01-30T13:20:14.524Z,8.49